Time;durP1;ratioP1;P1;durP2;ratioP2;P2;SDS_P1;SDS_P2;PMS_P1;PMS_P2;Temp;Humidity;BMP_temperature;BMP_pressure;BME280_temperature;BME280_humidity;BME280_pressure;Samples;Min_cycle;Max_cycle;Signal;HPM_P1;HPM_P2
2022/05/12 00:00:31;;;;;;;4.18;1.75;;;;;;;;;;5008315;28;20045;-76
2022/05/12 00:02:57;;;;;;;8.15;2.47;;;;;;;14.09;83.68;68341.97;5004223;28;20815;-76
2022/05/12 00:05:24;;;;;;;6.13;2.00;;;;;;;14.04;83.68;68333.03;4989326;28;20058;-77
2022/05/12 00:07:50;;;;;;;9.80;1.95;;;;;;;13.97;83.82;68325.66;4986922;28;20098;-77
2022/05/12 00:10:19;;;;;;;6.00;1.73;;;;;;;13.92;83.80;68320.53;4992007;28;20640;-77
2022/05/12 00:12:45;;;;;;;5.72;1.85;;;;;;;13.91;83.75;68319.41;4991788;28;20038;-77
2022/05/12 00:15:15;;;;;;;5.00;1.52;;;;;;;13.86;83.79;68313.13;4993938;28;20111;-77
2022/05/12 00:17:44;;;;;;;8.45;2.20;;;;;;;13.85;83.71;68317.91;4990450;28;20521;-77
2022/05/12 00:20:11;;;;;;;5.82;1.95;;;;;;;13.81;83.78;68310.72;5013569;28;20040;-77
2022/05/12 00:22:36;;;;;;;7.68;1.90;;;;;;;13.75;83.56;68301.78;5012837;28;20058;-76
2022/05/12 00:25:03;;;;;;;6.28;1.73;;;;;;;13.70;83.85;68290.72;5015053;28;20052;-78
2022/05/12 00:27:28;;;;;;;3.05;1.25;;;;;;;13.66;83.56;68294.19;5011857;28;20033;-78
2022/05/12 00:29:53;;;;;;;6.90;1.65;;;;;;;13.63;83.73;68288.09;4981372;28;20049;-78
2022/05/12 00:32:19;;;;;;;5.38;1.83;;;;;;;;;;5000842;28;20033;-77
2022/05/12 00:34:44;;;;;;;8.20;1.73;;;;;;;13.51;83.65;68275.03;5014712;28;20045;-78
2022/05/12 00:37:09;;;;;;;8.43;2.00;;;;;;;13.47;83.29;68270.47;5013232;28;20124;-77
2022/05/12 00:39:35;;;;;;;6.35;1.40;;;;;;;13.40;82.51;68261.94;5011784;28;20610;-78
2022/05/12 00:42:01;;;;;;;5.10;1.52;;;;;;;13.30;82.73;68251.72;5013979;28;20038;-76
2022/05/12 00:44:26;;;;;;;7.10;1.73;;;;;;;;;;5008345;28;20038;-76
2022/05/12 00:46:53;;;;;;;6.60;1.57;;;;;;;13.23;83.01;68243.16;5013340;28;20082;-76
2022/05/12 00:49:27;;;;;;;6.85;1.77;;;;;;;;;;5012635;28;20281;-78
2022/05/12 00:52:11;;;;;;;6.68;1.58;;;;;;;13.12;84.33;68231.22;5013958;28;20046;-78
2022/05/12 00:54:46;;;;;;;6.47;1.77;;;;;;;13.06;84.50;68224.97;5014569;28;20035;-78
2022/05/12 00:57:17;;;;;;;6.15;1.60;;;;;;;13.00;83.87;68218.13;5011363;28;20120;-78
2022/05/12 00:59:43;;;;;;;6.63;1.50;;;;;;;12.95;83.41;68211.91;5013657;28;20049;-77
2022/05/12 01:02:14;;;;;;;7.13;1.70;;;;;;;12.97;83.00;68209.38;5014264;28;20045;-77
2022/05/12 01:04:41;;;;;;;5.07;1.40;;;;;;;12.85;83.36;68204.31;5009392;28;20522;-77
2022/05/12 01:07:06;;;;;;;5.85;1.52;;;;;;;;;;5008864;28;20061;-76
2022/05/12 01:09:32;;;;;;;5.63;1.30;;;;;;;12.71;83.40;68185.72;5013028;28;20061;-77
2022/05/12 01:11:58;;;;;;;6.28;1.48;;;;;;;12.72;83.45;68192.22;5010268;28;20287;-77
2022/05/12 01:14:24;;;;;;;4.50;1.77;;;;;;;12.66;83.65;68180.06;5001319;28;20047;-78
2022/05/12 01:16:55;;;;;;;5.60;1.52;;;;;;;12.61;84.21;68174.94;4983846;28;20043;-78
2022/05/12 01:19:25;;;;;;;5.13;1.77;;;;;;;12.61;84.54;68174.94;4998951;28;20499;-78
2022/05/12 01:21:52;;;;;;;7.15;1.83;;;;;;;12.61;84.78;68174.38;5000858;28;20052;-77
2022/05/12 01:24:21;;;;;;;3.38;1.30;;;;;;;12.53;85.05;68165.84;4996425;28;20054;-78
2022/05/12 01:26:47;;;;;;;6.57;1.38;;;;;;;12.50;85.25;68165.09;4992928;28;20042;-78
2022/05/12 01:29:12;;;;;;;5.75;1.50;;;;;;;12.44;85.72;68160.41;4989899;28;20495;-77
2022/05/12 01:31:38;;;;;;;4.47;1.60;;;;;;;12.41;85.58;68152.22;4994286;28;20042;-78
2022/05/12 01:34:07;;;;;;;7.90;1.58;;;;;;;12.33;85.57;68148.44;4993321;28;20042;-77
2022/05/12 01:36:33;;;;;;;6.30;1.63;;;;;;;12.32;85.89;68141.97;4994352;28;20082;-78
2022/05/12 01:38:59;;;;;;;5.65;1.33;;;;;;;;;;4976890;28;20542;-79
2022/05/12 01:41:24;;;;;;;4.90;1.70;;;;;;;12.28;85.68;68137.44;4973622;28;20043;-78
2022/05/12 01:43:50;;;;;;;5.20;1.77;;;;;;;12.23;85.84;68132.31;4988749;28;20047;-77
2022/05/12 01:46:15;;;;;;;5.18;1.30;;;;;;;12.29;85.33;68141.81;4991579;28;20513;-79
2022/05/12 01:48:41;;;;;;;7.95;1.60;;;;;;;12.17;85.97;68130.84;4993112;28;20042;-79
2022/05/12 01:51:08;;;;;;;2.80;1.30;;;;;;;12.18;86.14;68129.88;5006003;28;20041;-78
2022/05/12 01:53:34;;;;;;;4.72;1.30;;;;;;;;;;5015353;28;20037;-77
2022/05/12 01:55:59;;;;;;;7.63;1.85;;;;;;;;;;5013353;28;20567;-78
2022/05/12 01:58:25;;;;;;;7.43;1.98;;;;;;;12.03;87.76;68109.59;5001991;28;20050;-77
2022/05/12 02:00:51;;;;;;;6.05;1.70;;;;;;;12.00;88.20;68108.84;5006328;28;20045;-78
2022/05/12 02:03:17;;;;;;;6.10;1.85;;;;;;;11.97;88.51;68098.03;5013099;28;20046;-77
2022/05/12 02:05:44;;;;;;;4.05;1.80;;;;;;;11.90;89.30;68095.94;5012183;28;20041;-77
2022/05/12 02:08:12;;;;;;;8.20;1.80;;;;;;;11.81;89.94;68085.16;5010926;28;20521;-78
2022/05/12 02:10:39;;;;;;;5.80;1.98;;;;;;;11.77;90.35;68081.19;5014837;28;20030;-78
2022/05/12 02:13:08;;;;;;;7.10;2.38;;;;;;;11.74;90.85;68077.78;5007257;28;20038;-78
2022/05/12 02:15:34;;;;;;;8.48;2.42;;;;;;;11.77;91.07;68083.25;4994836;28;20042;-78
2022/05/12 02:18:00;;;;;;;7.00;1.90;;;;;;;11.75;90.75;68078.91;4992609;28;20045;-78
2022/05/12 02:20:25;;;;;;;9.10;2.30;;;;;;;11.67;91.48;68070.38;4994394;28;20141;-79
2022/05/12 02:22:50;;;;;;;9.93;2.30;;;;;;;11.65;92.17;68067.53;4993995;28;20039;-78
2022/05/12 02:25:17;;;;;;;8.95;2.80;;;;;;;11.66;92.07;68069.25;4995107;28;20093;-79
2022/05/12 02:27:45;;;;;;;10.27;2.80;;;;;;;11.60;92.55;68064.53;4991532;28;20050;-79
2022/05/12 02:30:13;;;;;;;11.07;2.85;;;;;;;11.47;93.73;68053.00;4979059;28;20522;-78
2022/05/12 02:32:39;;;;;;;9.57;3.40;;;;;;;11.45;94.32;68048.63;4975449;28;20069;-77
2022/05/12 02:35:05;;;;;;;9.45;3.13;;;;;;;11.42;94.84;68042.56;4994858;28;20520;-79
2022/05/12 02:37:30;;;;;;;6.30;2.97;;;;;;;11.39;94.93;68033.81;4995020;28;20056;-77
2022/05/12 02:39:55;;;;;;;7.03;2.38;;;;;;;11.34;95.54;68032.91;4994638;28;20042;-79
2022/05/12 02:42:21;;;;;;;8.60;2.65;;;;;;;;;;4995536;28;20060;-78
2022/05/12 02:44:46;;;;;;;9.85;2.70;;;;;;;11.30;95.79;68031.59;4995578;28;20175;-78
2022/05/12 02:47:12;;;;;;;11.40;2.70;;;;;;;11.26;96.15;68027.63;4995589;28;20041;-79
2022/05/12 02:49:37;;;;;;;6.18;2.78;;;;;;;11.24;96.21;68022.13;5006954;28;20054;-79
2022/05/12 02:52:04;;;;;;;6.95;2.78;;;;;;;11.23;95.91;68021.53;5015285;28;20052;-79
2022/05/12 02:54:30;;;;;;;10.07;3.10;;;;;;;11.23;96.27;68021.53;5013776;28;20068;-78
2022/05/12 02:56:55;;;;;;;10.65;3.00;;;;;;;;;;5015953;28;20037;-79
2022/05/12 02:59:21;;;;;;;6.72;2.55;;;;;;;;;;5012092;28;20049;-79
2022/05/12 03:01:46;;;;;;;8.30;2.78;;;;;;;11.09;97.10;68005.09;5007058;28;20046;-79
2022/05/12 03:04:12;;;;;;;8.85;2.75;;;;;;;11.07;97.09;68003.94;4987531;28;20314;-78
2022/05/12 03:06:37;;;;;;;10.80;3.20;;;;;;;11.03;97.20;67999.41;4977606;28;20489;-78
2022/05/12 03:09:03;;;;;;;6.80;2.83;;;;;;;;;;4981546;28;20053;-79
2022/05/12 03:11:28;;;;;;;8.65;2.83;;;;;;;10.98;97.79;67993.72;4976380;28;20053;-79
2022/05/12 03:13:54;;;;;;;10.38;2.97;;;;;;;10.96;98.06;67996.78;4986183;28;20089;-79
2022/05/12 03:16:20;;;;;;;14.05;3.50;;;;;;;10.92;98.12;67989.59;4993357;28;20090;-79
2022/05/12 03:18:47;;;;;;;8.18;2.88;;;;;;;10.96;97.95;67994.13;4987236;28;20042;-79
2022/05/12 03:21:14;;;;;;;8.48;2.83;;;;;;;10.91;97.97;67990.56;5006822;28;20594;-78
2022/05/12 03:23:40;;;;;;;11.73;2.92;;;;;;;10.91;98.32;67985.78;5012611;28;20042;-80
2022/05/12 03:26:06;;;;;;;9.52;2.83;;;;;;;10.88;98.16;67984.47;4995215;28;20127;-78
2022/05/12 03:28:32;;;;;;;9.65;3.13;;;;;;;10.91;97.81;67985.78;4993422;28;20388;-79
2022/05/12 03:30:57;;;;;;;11.10;2.85;;;;;;;10.86;98.07;67985.44;5008369;28;20096;-79
2022/05/12 03:33:23;;;;;;;13.63;3.17;;;;;;;10.77;98.85;67969.91;5012137;28;20049;-80
2022/05/12 03:35:49;;;;;;;9.98;2.67;;;;;;;10.82;98.35;67978.25;5012454;28;20038;-79
2022/05/12 03:38:15;;;;;;;9.73;2.92;;;;;;;10.76;98.91;67969.34;5002137;28;20038;-79
2022/05/12 03:40:40;;;;;;;8.85;3.05;;;;;;;10.70;99.35;67964.59;4992716;28;20037;-80
2022/05/12 03:43:05;;;;;;;8.10;2.88;;;;;;;10.70;99.17;67967.25;4990475;28;20042;-79
2022/05/12 03:45:33;;;;;;;11.38;3.60;;;;;;;10.70;99.40;67961.94;4999275;28;20038;-76
2022/05/12 03:47:59;;;;;;;8.57;2.97;;;;;;;10.66;99.50;67960.63;4979406;28;20047;-78
2022/05/12 03:50:27;;;;;;;8.40;2.67;;;;;;;10.67;98.95;67961.19;5002721;28;20030;-78
2022/05/12 03:52:54;;;;;;;10.65;2.95;;;;;;;10.64;99.21;67950.38;5011763;28;20057;-79
2022/05/12 03:55:23;;;;;;;8.93;3.47;;;;;;;10.69;99.17;67966.13;5016371;28;20041;-78
2022/05/12 03:57:51;;;;;;;9.33;3.17;;;;;;;10.72;98.40;67966.88;5010919;28;20044;-79
2022/05/12 04:00:21;;;;;;;9.93;3.22;;;;;;;;;;5015062;28;20117;-79
2022/05/12 04:02:47;;;;;;;13.05;3.20;;;;;;;10.70;98.23;67961.94;5012692;28;20602;-79
2022/05/12 04:05:13;;;;;;;13.27;3.55;;;;;;;10.72;98.07;67964.22;5013984;28;20042;-78
2022/05/12 04:07:43;;;;;;;12.55;3.53;;;;;;;10.70;98.27;67967.25;4999189;28;20038;-79
2022/05/12 04:10:10;;;;;;;11.88;3.33;;;;;;;10.63;98.68;67959.34;5008668;28;20409;-77
2022/05/12 04:12:36;;;;;;;10.43;3.28;;;;;;;10.65;98.53;67956.28;5009931;28;20442;-79
2022/05/12 04:15:02;;;;;;;8.48;3.03;;;;;;;10.69;98.66;67960.81;5013407;28;20033;-78
2022/05/12 04:17:27;;;;;;;10.23;3.40;;;;;;;10.64;98.57;67955.69;5013513;28;20128;-79
2022/05/12 04:19:52;;;;;;;9.43;3.55;;;;;;;10.68;99.33;67962.34;5014887;28;20038;-78
2022/05/12 04:22:19;;;;;;;12.23;3.50;;;;;;;10.67;98.96;67961.19;5013351;28;20050;-79
2022/05/12 04:24:45;;;;;;;9.02;3.90;;;;;;;10.69;99.03;67966.13;5012160;28;20042;-79
2022/05/12 04:27:11;;;;;;;10.43;3.45;;;;;;;10.68;98.91;67962.91;5013631;28;20616;-78
2022/05/12 04:29:42;;;;;;;9.48;3.60;;;;;;;;;;5009385;28;20042;-79
2022/05/12 04:32:08;;;;;;;12.00;3.75;;;;;;;10.61;99.28;67955.53;5011109;28;20042;-79
2022/05/12 04:37:17;;;;;;;11.15;4.22;;;;;;;10.73;99.17;67965.34;5013458;28;20060;-79
2022/05/12 04:39:43;;;;;;;8.77;3.58;;;;;;;10.74;98.79;67971.81;5004951;28;20050;-79
2022/05/12 04:42:08;;;;;;;10.55;4.20;;;;;;;10.70;99.47;67961.94;4994409;28;20042;-79
2022/05/12 04:44:33;;;;;;;9.82;3.50;;;;;;;10.73;99.19;67965.34;4996797;28;20415;-79
2022/05/12 04:46:59;;;;;;;9.18;4.00;;;;;;;10.73;99.68;67965.34;5013905;28;20036;-79
2022/05/12 04:49:26;;;;;;;12.65;4.93;;;;;;;10.74;99.93;67971.81;5008737;28;20048;-79
2022/05/12 04:51:52;;;;;;;10.38;4.13;;;;;;;10.78;99.57;67973.69;5013538;28;20038;-79
2022/05/12 04:54:17;;;;;;;10.45;4.38;;;;;;;10.78;99.94;67971.59;5013755;28;20038;-79
2022/05/12 04:56:42;;;;;;;9.50;4.15;;;;;;;10.77;100.00;67972.56;5011653;28;20048;-79
2022/05/12 04:59:09;;;;;;;18.77;5.35;;;;;;;10.79;100.00;67972.75;5027144;28;20128;-78
2022/05/12 05:01:35;;;;;;;12.20;4.82;;;;;;;10.86;99.74;67979.53;5004849;28;20042;-79
2022/05/12 05:04:01;;;;;;;10.60;5.03;;;;;;;10.90;99.52;67989.97;4991449;28;20046;-79
2022/05/12 05:06:31;;;;;;;13.63;6.22;;;;;;;10.87;100.00;67983.91;4993595;28;20049;-79
2022/05/12 05:08:56;;;;;;;11.55;6.22;;;;;;;10.94;99.84;67993.97;4994145;28;20044;-79
2022/05/12 05:11:22;;;;;;;14.23;7.03;;;;;;;10.99;99.95;67997.53;5001896;28;20057;-79
2022/05/12 05:13:48;;;;;;;10.52;5.60;;;;;;;11.02;99.17;68000.38;5001863;28;20185;-79
2022/05/12 05:16:14;;;;;;;8.43;4.90;;;;;;;11.00;99.26;67998.09;4992472;28;20046;-79
2022/05/12 05:18:39;;;;;;;13.23;5.75;;;;;;;11.03;99.18;67999.41;5008660;28;20405;-79
2022/05/12 05:21:04;;;;;;;16.20;6.25;;;;;;;;;;5006530;28;20038;-79
2022/05/12 05:23:30;;;;;;;15.90;6.28;;;;;;;11.07;99.11;68003.94;4995634;28;20042;-79
2022/05/12 05:25:56;;;;;;;13.05;5.80;;;;;;;11.16;98.48;68013.59;4998600;28;20038;-79
2022/05/12 05:28:22;;;;;;;11.90;5.90;;;;;;;11.25;98.14;68023.81;5012123;28;20057;-79
2022/05/12 05:30:48;;;;;;;17.40;6.97;;;;;;;11.23;98.40;68024.22;5010580;28;20053;-79
2022/05/12 05:33:13;;;;;;;10.25;5.28;;;;;;;11.32;97.92;68039.19;5013431;28;20042;-79
2022/05/12 05:35:39;;;;;;;14.35;5.78;;;;;;;11.39;97.65;68041.81;5012538;28;20088;-79
2022/05/12 05:38:04;;;;;;;14.35;6.43;;;;;;;11.49;97.53;68052.59;5009471;28;20466;-79
2022/05/12 05:40:30;;;;;;;12.32;6.32;;;;;;;11.52;97.51;68059.25;5013600;28;20559;-79
2022/05/12 05:42:57;;;;;;;32.38;9.35;;;;;;;11.62;97.47;68064.13;5012171;28;20041;-79
2022/05/12 05:45:23;;;;;;;19.40;6.78;;;;;;;11.62;96.94;68059.34;5014006;28;20038;-79
2022/05/12 05:47:56;;;;;;;19.15;6.85;;;;;;;11.65;97.15;68067.53;4993535;28;20050;-79
2022/05/12 05:50:29;;;;;;;12.57;6.68;;;;;;;;;;4994659;28;20074;-79
2022/05/12 05:55:39;;;;;;;16.15;6.85;;;;;;;;;;5015045;28;20069;-79
2022/05/12 05:58:05;;;;;;;12.98;6.45;;;;;;;12.00;95.76;68106.19;4998037;28;20061;-79
2022/05/12 06:00:32;;;;;;;9.50;5.50;;;;;;;12.09;94.92;68119.09;5014887;28;20041;-79
2022/05/12 06:02:58;;;;;;;10.27;5.75;;;;;;;12.16;94.71;68124.38;5013383;28;20037;-79
2022/05/12 06:05:23;;;;;;;8.00;5.35;;;;;;;12.19;94.48;68128.34;5009530;28;20041;-79
2022/05/12 06:07:49;;;;;;;9.40;5.63;;;;;;;12.29;94.40;68144.47;5008518;28;20576;-79
2022/05/12 06:10:14;;;;;;;11.45;6.45;;;;;;;12.27;94.06;68136.88;5011198;28;20046;-79
2022/05/12 06:12:40;;;;;;;13.40;6.20;;;;;;;12.35;93.86;68145.41;4996930;28;20507;-79
2022/05/12 06:15:07;;;;;;;12.00;6.45;;;;;;;12.37;93.50;68150.91;4980775;28;20046;-79
2022/05/12 06:17:34;;;;;;;13.40;6.38;;;;;;;12.49;93.45;68160.75;4997332;28;20531;-78
2022/05/12 06:20:00;;;;;;;15.10;6.60;;;;;;;12.60;93.24;68175.91;5007662;28;20053;-77
2022/05/12 06:22:26;;;;;;;11.85;6.05;;;;;;;12.69;92.79;68182.88;4997532;28;20085;-77
2022/05/12 06:24:51;;;;;;;10.77;6.00;;;;;;;12.74;92.04;68189.13;4986464;28;20065;-76
2022/05/12 06:27:22;;;;;;;12.27;6.95;;;;;;;12.82;92.12;68198.25;4986186;28;20053;-77
2022/05/12 06:29:47;;;;;;;13.50;6.93;;;;;;;;;;4992416;28;20072;-77
2022/05/12 06:32:13;;;;;;;9.75;6.45;;;;;;;12.81;91.17;68197.09;5001783;28;20467;-77
2022/05/12 06:34:41;;;;;;;14.63;6.38;;;;;;;12.77;91.14;68195.22;5006260;28;20072;-77
2022/05/12 06:37:08;;;;;;;11.88;6.50;;;;;;;12.82;91.23;68198.25;4987391;28;20042;-77
2022/05/12 06:39:33;;;;;;;10.60;6.53;;;;;;;12.95;91.16;68212.47;4987968;28;20073;-77
2022/05/12 06:41:58;;;;;;;9.68;5.88;;;;;;;13.01;90.67;68218.72;4983506;28;20499;-78
2022/05/12 06:44:24;;;;;;;12.45;6.50;;;;;;;13.09;90.13;68227.81;4985755;28;20104;-78
2022/05/12 06:46:49;;;;;;;10.55;6.85;;;;;;;13.20;89.69;68234.97;4985880;28;20042;-78
2022/05/12 06:49:17;;;;;;;10.48;6.18;;;;;;;13.31;88.86;68252.28;4986506;28;20049;-77
2022/05/12 06:51:45;;;;;;;12.65;6.47;;;;;;;13.31;88.67;68252.28;4986722;28;20040;-78
2022/05/12 06:54:11;;;;;;;13.05;6.28;;;;;;;13.34;88.38;68249.78;4985466;28;20085;-78
2022/05/12 06:56:36;;;;;;;15.88;6.32;;;;;;;13.39;88.10;68261.38;4977965;28;20602;-78
2022/05/12 06:59:02;;;;;;;9.38;5.25;;;;;;;13.37;87.54;68259.09;4966445;28;20087;-78
2022/05/12 07:01:27;;;;;;;10.23;5.50;;;;;;;13.46;86.87;68269.34;4998905;28;20123;-77
2022/05/12 07:03:56;;;;;;;9.93;5.40;;;;;;;13.60;85.88;68286.81;4990470;28;20129;-77
2022/05/12 07:06:21;;;;;;;9.95;5.60;;;;;;;;;;5009793;28;20610;-77
2022/05/12 07:08:47;;;;;;;10.95;5.93;;;;;;;13.68;85.53;68293.78;5004461;28;20192;-78
2022/05/12 07:11:12;;;;;;;9.02;5.25;;;;;;;13.72;85.06;68297.78;5005625;28;20038;-78
2022/05/12 07:13:38;;;;;;;10.00;4.93;;;;;;;13.80;84.74;68306.31;5005953;28;20049;-77
2022/05/12 07:16:04;;;;;;;9.05;4.65;;;;;;;;;;5006347;28;20668;-76
2022/05/12 07:18:30;;;;;;;7.50;3.72;;;;;;;;;;5003522;28;20050;-77
2022/05/12 07:26:41;;;;;;;9.88;4.60;;;;;;;14.01;81.44;68330.19;4989660;28;20450;-78
2022/05/12 07:29:09;;;;;;;7.95;4.85;;;;;;;;;;4985190;28;20051;-78
2022/05/12 07:31:35;;;;;;;7.88;4.50;;;;;;;14.14;79.38;68345.00;4991411;28;20462;-78
2022/05/12 07:34:00;;;;;;;10.20;5.10;;;;;;;14.30;79.58;68362.06;4984858;28;20043;-78
2022/05/12 07:36:29;;;;;;;8.88;4.22;;;;;;;14.52;78.07;68389.81;5004458;28;20652;-78
2022/05/12 07:38:56;;;;;;;9.55;5.15;;;;;;;14.48;79.66;68382.00;5004022;28;20042;-79
2022/05/12 07:41:22;;;;;;;11.20;5.57;;;;;;;14.54;80.07;68384.06;4990155;28;20074;-78
2022/05/12 07:43:48;;;;;;;7.88;3.45;;;;;;;14.56;75.71;68391.13;4986311;28;20050;-79
2022/05/12 07:46:17;;;;;;;7.57;3.15;;;;;;;14.76;74.72;68407.97;5002020;28;20046;-78
2022/05/12 07:48:43;;;;;;;9.50;3.75;;;;;;;14.85;73.57;68424.16;5009741;28;20068;-79
2022/05/12 07:51:09;;;;;;;6.22;4.40;;;;;;;14.79;75.12;68416.75;5002102;28;20494;-77
2022/05/12 07:53:35;;;;;;;10.18;3.70;;;;;;;14.88;74.96;68427.00;4985803;28;20108;-78
2022/05/12 07:56:01;;;;;;;5.88;2.80;;;;;;;14.94;72.75;68433.25;4984597;28;20038;-78
2022/05/12 07:58:27;;;;;;;6.40;3.25;;;;;;;;;;4980353;28;20696;-78
2022/05/12 08:00:53;;;;;;;6.07;3.22;;;;;;;15.12;72.75;68453.75;4981460;28;20050;-78
2022/05/12 08:03:19;;;;;;;6.97;2.83;;;;;;;15.33;71.22;68477.69;4994063;28;20503;-78
2022/05/12 08:05:45;;;;;;;7.20;2.80;;;;;;;15.35;70.01;68479.38;4986115;28;20045;-77
2022/05/12 08:08:11;;;;;;;6.53;3.13;;;;;;;15.27;68.68;68465.47;4985866;28;20126;-79
2022/05/12 08:10:37;;;;;;;6.40;2.78;;;;;;;15.32;68.39;68475.97;4986037;28;20128;-78
2022/05/12 08:13:03;;;;;;;5.40;2.92;;;;;;;;;;4985557;28;20492;-79
2022/05/12 08:15:28;;;;;;;4.40;2.58;;;;;;;15.29;68.36;68467.19;4995219;28;20049;-78
2022/05/12 08:17:56;;;;;;;8.38;2.92;;;;;;;15.45;68.62;68493.47;4988653;28;20125;-78
2022/05/12 08:20:22;;;;;;;5.37;2.57;;;;;;;15.63;67.14;68510.16;4982317;28;20046;-78
2022/05/12 08:22:48;;;;;;;5.47;2.10;;;;;;;15.78;65.84;68527.25;4986839;28;20033;-78
2022/05/12 08:25:14;;;;;;;7.28;2.40;;;;;;;15.72;65.09;68520.44;4985311;28;20100;-78
2022/05/12 08:27:40;;;;;;;8.48;3.00;;;;;;;15.76;65.39;68524.97;4984745;28;20042;-79
2022/05/12 08:30:08;;;;;;;8.63;3.00;;;;;;;15.70;64.19;68524.06;4984975;28;20492;-78
2022/05/12 08:32:33;;;;;;;7.47;2.17;;;;;;;;;;4988319;28;20066;-78
2022/05/12 08:34:59;;;;;;;9.43;2.30;;;;;;;15.74;63.04;68523.28;4997134;28;20116;-79
2022/05/12 08:37:25;;;;;;;5.28;2.28;;;;;;;15.77;64.09;68526.13;5004949;28;20077;-78
2022/05/12 08:39:50;;;;;;;4.97;2.42;;;;;;;;;;4991907;28;20042;-78
2022/05/12 08:42:21;;;;;;;6.60;2.40;;;;;;;16.09;63.21;68556.66;4988984;28;20058;-78
2022/05/12 08:44:47;;;;;;;12.77;2.92;;;;;;;;;;4989780;28;20042;-79
2022/05/12 08:47:23;;;;;;;5.07;2.15;;;;;;;15.99;61.63;68545.25;5004679;28;20048;-78
2022/05/12 08:49:50;;;;;;;5.70;2.35;;;;;;;;;;5009786;28;20030;-79
2022/05/12 08:52:26;;;;;;;5.70;2.35;;;;;;;16.11;61.50;68558.94;5007887;28;20042;-79
2022/05/12 08:54:56;;;;;;;5.55;2.47;;;;;;;16.17;60.33;68573.84;5009834;28;20046;-78
2022/05/12 08:57:31;;;;;;;5.82;2.05;;;;;;;;;;5010362;28;20045;-79
2022/05/12 08:59:57;;;;;;;9.30;2.75;;;;;;;;;;5006450;28;20100;-78
2022/05/12 09:02:40;;;;;;;6.40;2.53;;;;;;;15.98;58.94;68549.50;5007478;28;20049;-77
2022/05/12 09:05:08;;;;;;;6.82;2.97;;;;;;;;;;5008841;28;20464;-79
2022/05/12 09:07:33;;;;;;;6.10;2.25;;;;;;;;;;4999998;28;20050;-78
2022/05/12 09:10:25;;;;;;;4.47;1.90;;;;;;;;;;4989154;28;20112;-78
2022/05/12 09:12:51;;;;;;;5.85;2.22;;;;;;;;;;4988119;28;20309;-77
2022/05/12 09:15:26;;;;;;;5.40;2.33;;;;;;;;;;4989349;28;20077;-79
2022/05/12 09:17:58;;;;;;;5.78;2.25;;;;;;;16.77;57.28;68637.28;4979502;28;20043;-78
2022/05/12 09:20:27;;;;;;;6.43;2.00;;;;;;;16.79;56.71;68634.75;4970893;28;20138;-78
2022/05/12 09:22:52;;;;;;;7.00;2.65;;;;;;;16.91;57.59;68648.44;4974786;28;20038;-78
2022/05/12 09:25:28;;;;;;;6.60;2.65;;;;;;;;;;4988537;28;20068;-77
2022/05/12 09:27:53;;;;;;;4.63;2.00;;;;;;;;;;4986869;28;20042;-78
2022/05/12 09:30:31;;;;;;;8.82;2.60;;;;;;;16.91;57.13;68648.44;4985439;28;20046;-79
2022/05/12 09:32:58;;;;;;;7.45;2.55;;;;;;;16.84;56.43;68645.84;4969895;28;20098;-78
2022/05/12 09:35:25;;;;;;;4.97;2.75;;;;;;;;;;4981100;28;20042;-78
2022/05/12 09:37:51;;;;;;;6.60;2.60;;;;;;;;;;4990845;28;20038;-79
2022/05/12 09:40:16;;;;;;;6.47;2.35;;;;;;;;;;4987349;28;20057;-77
2022/05/12 09:42:44;;;;;;;4.83;2.13;;;;;;;;;;4987390;28;20045;-76
2022/05/12 09:45:15;;;;;;;7.15;2.15;;;;;;;16.94;56.64;68656.69;4994489;28;20538;-77
2022/05/12 09:47:42;;;;;;;6.70;2.22;;;;;;;16.96;54.05;68653.03;4986847;28;20046;-77
2022/05/12 09:50:16;;;;;;;7.95;2.42;;;;;;;16.91;54.31;68648.44;5005817;28;20570;-78
2022/05/12 09:52:43;;;;;;;5.40;2.15;;;;;;;;;;5008641;28;20030;-77
2022/05/12 09:55:09;;;;;;;5.25;1.80;;;;;;;16.97;51.29;68654.16;5008478;28;20045;-78
2022/05/12 09:57:35;;;;;;;5.35;1.83;;;;;;;16.83;51.99;68644.13;5005292;28;20484;-78
2022/05/12 10:00:03;;;;;;;5.53;1.70;;;;;;;16.64;52.67;68623.03;4996643;28;20078;-77
2022/05/12 10:08:28;;;;;;;6.90;1.90;;;;;;;16.92;49.54;68649.03;5003155;28;20045;-77
2022/05/12 10:11:01;;;;;;;5.80;1.80;;;;;;;;;;5001249;28;20559;-77
2022/05/12 10:13:32;;;;;;;5.43;1.98;;;;;;;;;;5027420;23;20054;-78
2022/05/12 10:15:59;;;;;;;5.25;1.92;;;;;;;17.35;49.53;68702.88;5017163;28;20037;-78
2022/05/12 10:18:40;;;;;;;5.97;2.03;;;;;;;17.54;49.29;68718.59;5009108;28;20613;-78
2022/05/12 10:21:31;;;;;;;7.05;2.13;;;;;;;;;;5006151;28;20068;-78
2022/05/12 10:24:23;;;;;;;6.85;2.13;;;;;;;;;;4998427;28;20049;-78
2022/05/12 10:27:20;;;;;;;5.32;2.20;;;;;;;17.82;50.37;68749.44;5020897;28;20049;-78
2022/05/12 10:30:08;;;;;;;5.95;1.95;;;;;;;17.96;47.44;68764.84;5004143;28;20046;-79
2022/05/12 10:32:44;;;;;;;7.18;2.10;;;;;;;;;;4985309;28;20061;-79
2022/05/12 10:35:41;;;;;;;5.97;1.90;;;;;;;17.87;44.06;68754.59;5016039;28;20033;-78
2022/05/12 10:38:09;;;;;;;4.90;1.95;;;;;;;17.88;43.97;68761.69;4985530;28;20072;-78
2022/05/12 10:40:37;;;;;;;7.68;2.03;;;;;;;18.03;45.92;68778.78;4995005;28;20045;-78
2022/05/12 10:43:31;;;;;;;5.67;2.07;;;;;;;18.13;45.76;68784.25;4987714;28;20101;-78
2022/05/12 10:46:22;;;;;;;5.13;1.90;;;;;;;18.29;45.14;68801.38;4986504;28;20349;-78
2022/05/12 10:48:48;;;;;;;9.55;2.15;;;;;;;;;;5003931;28;20132;-77
2022/05/12 10:51:43;;;;;;;9.02;1.85;;;;;;;18.25;44.06;68797.38;5008819;28;20518;-78
2022/05/12 10:54:35;;;;;;;4.22;1.60;;;;;;;17.97;44.69;68766.00;5004493;28;20052;-78
2022/05/12 10:57:37;;;;;;;5.65;1.83;;;;;;;17.71;43.09;68742.81;5022009;28;20125;-78
2022/05/12 11:00:22;;;;;;;6.50;1.73;;;;;;;;;;5004855;28;20049;-79
2022/05/12 11:02:52;;;;;;;6.60;2.00;;;;;;;18.25;42.65;68797.94;5007316;28;20702;-79
2022/05/12 11:05:21;;;;;;;6.20;1.80;;;;;;;18.45;43.71;68820.22;5008548;28;20049;-79
2022/05/12 11:07:58;;;;;;;4.63;2.00;;;;;;;18.33;44.25;68806.53;5008781;28;20029;-79
2022/05/12 11:10:27;;;;;;;6.43;2.28;;;;;;;;;;4985936;28;20391;-78
2022/05/12 11:12:54;;;;;;;;;;;;;;;18.26;45.70;68809.88;4997313;28;20069;-79
2022/05/12 11:15:25;;;;;;;9.35;2.40;;;;;;;18.20;45.46;68792.25;5012194;28;19920;-79
2022/05/12 11:18:07;;;;;;;6.03;1.88;;;;;;;18.22;45.23;68799.91;5014257;28;20076;-79
2022/05/12 11:20:41;;;;;;;6.30;1.98;;;;;;;18.46;45.58;68820.78;5042766;28;20045;-79
2022/05/12 11:23:36;;;;;;;4.63;2.10;;;;;;;18.49;42.83;68824.78;5030416;28;20124;-78
2022/05/12 11:26:32;;;;;;;6.22;2.13;;;;;;;18.61;43.54;68837.34;5010792;28;20494;-79
2022/05/12 11:32:06;;;;;;;3.03;1.35;;;;;;;;;;4990622;28;20573;-79
2022/05/12 11:34:34;;;;;;;5.47;1.40;;;;;;;18.47;41.20;68827.91;4996999;28;20093;-79
2022/05/12 11:37:28;;;;;;;4.82;1.60;;;;;;;18.72;39.86;68849.91;5005992;28;20096;-79
2022/05/12 11:39:56;;;;;;;5.07;1.70;;;;;;;18.72;40.63;68855.28;5010350;28;20053;-79
2022/05/12 11:42:22;;;;;;;5.22;1.80;;;;;;;18.91;40.55;68876.47;5005731;28;20522;-79
2022/05/12 11:44:54;;;;;;;4.22;1.98;;;;;;;;;;4990338;28;20042;-79
2022/05/12 11:47:31;;;;;;;5.75;1.77;;;;;;;;;;4990517;28;20133;-79
2022/05/12 11:50:15;;;;;;;2.42;1.20;;;;;;;;;;4991449;28;20038;-78
2022/05/12 11:52:53;;;;;;;3.78;1.65;;;;;;;;;;5003108;28;20035;-79
2022/05/12 11:55:24;;;;;;;7.57;2.67;;;;;;;18.60;41.13;68836.19;4990846;28;20042;-79
2022/05/12 11:58:00;;;;;;;4.85;2.00;;;;;;;;;;4989996;28;20047;-79
2022/05/12 12:00:34;;;;;;;4.18;2.20;;;;;;;18.77;40.35;68855.06;5001299;28;20064;-79
2022/05/12 12:03:20;;;;;;;4.43;1.95;;;;;;;18.62;39.97;68844.47;5009994;28;20458;-79
2022/05/12 12:05:48;;;;;;;4.05;1.50;;;;;;;18.77;41.05;68861.03;5004139;28;20042;-79
2022/05/12 12:08:32;;;;;;;4.03;2.03;;;;;;;19.00;38.51;68880.78;5015694;28;20037;-79
2022/05/12 12:11:12;;;;;;;6.28;2.17;;;;;;;;;;5011092;28;20479;-78
2022/05/12 12:13:38;;;;;;;4.80;2.13;;;;;;;18.96;40.87;68876.19;5019692;28;20768;-79
2022/05/12 12:16:06;;;;;;;5.32;2.88;;;;;;;;;;5015215;28;20128;-80
2022/05/12 12:18:34;;;;;;;6.55;2.13;;;;;;;18.82;40.50;68866.19;5014073;28;20122;-79
2022/05/12 12:21:17;;;;;;;4.50;2.07;;;;;;;;;;5015465;28;20453;-80
2022/05/12 12:24:14;;;;;;;4.00;1.70;;;;;;;19.01;41.46;68879.78;5017428;28;20344;-79
2022/05/12 12:26:41;;;;;;;8.85;2.55;;;;;;;19.01;41.33;68882.47;4999497;28;20045;-78
2022/05/12 12:29:10;;;;;;;5.05;2.50;;;;;;;19.13;41.11;68901.59;5017191;28;20062;-79
2022/05/12 12:31:40;;;;;;;6.20;2.58;;;;;;;;;;4997633;28;20518;-79